sensor_id;sensor_type;location;lat;lon;timestamp;P1;durP1;ratioP1;P2;durP2;ratioP2
17365;SDS011;8800;50.118;9.900;2022-11-15T00:01:52;19.45;;;10.00;;
17365;SDS011;8800;50.118;9.900;2022-11-15T00:04:20;20.42;;;10.95;;
17365;SDS011;8800;50.118;9.900;2022-11-15T00:06:46;20.02;;;10.40;;
17365;SDS011;8800;50.118;9.900;2022-11-15T00:09:13;20.20;;;10.20;;
17365;SDS011;8800;50.118;9.900;2022-11-15T00:11:39;25.30;;;11.68;;
17365;SDS011;8800;50.118;9.900;2022-11-15T00:14:05;26.10;;;11.95;;
17365;SDS011;8800;50.118;9.900;2022-11-15T00:16:32;28.83;;;12.77;;
17365;SDS011;8800;50.118;9.900;2022-11-15T00:18:58;24.88;;;13.07;;
17365;SDS011;8800;50.118;9.900;2022-11-15T00:21:26;25.35;;;12.13;;
17365;SDS011;8800;50.118;9.900;2022-11-15T00:23:52;24.52;;;12.48;;
17365;SDS011;8800;50.118;9.900;2022-11-15T00:26:19;27.45;;;12.52;;
17365;SDS011;8800;50.118;9.900;2022-11-15T00:28:45;25.33;;;11.77;;
17365;SDS011;8800;50.118;9.900;2022-11-15T00:31:12;22.88;;;12.20;;
17365;SDS011;8800;50.118;9.900;2022-11-15T00:33:39;23.55;;;11.93;;
17365;SDS011;8800;50.118;9.900;2022-11-15T00:36:06;21.20;;;11.02;;
17365;SDS011;8800;50.118;9.900;2022-11-15T00:38:36;22.40;;;11.18;;
17365;SDS011;8800;50.118;9.900;2022-11-15T00:41:02;22.55;;;11.38;;
17365;SDS011;8800;50.118;9.900;2022-11-15T00:43:29;20.30;;;10.82;;
17365;SDS011;8800;50.118;9.900;2022-11-15T00:45:56;22.15;;;10.88;;
17365;SDS011;8800;50.118;9.900;2022-11-15T00:48:22;22.73;;;11.45;;
17365;SDS011;8800;50.118;9.900;2022-11-15T00:50:49;20.13;;;10.52;;
17365;SDS011;8800;50.118;9.900;2022-11-15T00:53:15;20.67;;;10.63;;
17365;SDS011;8800;50.118;9.900;2022-11-15T00:55:43;18.52;;;10.43;;
17365;SDS011;8800;50.118;9.900;2022-11-15T00:58:10;19.80;;;10.90;;
17365;SDS011;8800;50.118;9.900;2022-11-15T01:00:36;24.92;;;12.60;;
17365;SDS011;8800;50.118;9.900;2022-11-15T01:03:03;21.38;;;12.20;;
17365;SDS011;8800;50.118;9.900;2022-11-15T01:05:29;20.08;;;11.63;;
17365;SDS011;8800;50.118;9.900;2022-11-15T01:07:55;23.55;;;12.20;;
17365;SDS011;8800;50.118;9.900;2022-11-15T01:10:22;24.48;;;12.60;;
17365;SDS011;8800;50.118;9.900;2022-11-15T01:12:50;21.50;;;11.65;;
17365;SDS011;8800;50.118;9.900;2022-11-15T01:15:16;20.67;;;11.30;;
17365;SDS011;8800;50.118;9.900;2022-11-15T01:17:43;23.33;;;11.75;;
17365;SDS011;8800;50.118;9.900;2022-11-15T01:20:09;19.48;;;10.60;;
17365;SDS011;8800;50.118;9.900;2022-11-15T01:22:36;21.42;;;11.45;;
17365;SDS011;8800;50.118;9.900;2022-11-15T01:25:02;21.65;;;11.23;;
17365;SDS011;8800;50.118;9.900;2022-11-15T01:27:29;24.17;;;11.00;;
17365;SDS011;8800;50.118;9.900;2022-11-15T01:29:56;22.63;;;11.55;;
17365;SDS011;8800;50.118;9.900;2022-11-15T01:32:23;21.17;;;11.10;;
17365;SDS011;8800;50.118;9.900;2022-11-15T01:34:49;27.80;;;11.85;;
17365;SDS011;8800;50.118;9.900;2022-11-15T01:37:15;26.05;;;13.27;;
17365;SDS011;8800;50.118;9.900;2022-11-15T01:39:42;25.50;;;12.15;;
17365;SDS011;8800;50.118;9.900;2022-11-15T01:42:09;30.20;;;14.35;;
17365;SDS011;8800;50.118;9.900;2022-11-15T01:44:39;30.40;;;14.93;;
17365;SDS011;8800;50.118;9.900;2022-11-15T01:47:08;28.08;;;13.45;;
17365;SDS011;8800;50.118;9.900;2022-11-15T01:49:35;25.10;;;12.40;;
17365;SDS011;8800;50.118;9.900;2022-11-15T01:52:04;24.02;;;12.07;;
17365;SDS011;8800;50.118;9.900;2022-11-15T01:54:32;26.15;;;12.27;;
17365;SDS011;8800;50.118;9.900;2022-11-15T01:56:59;22.88;;;12.30;;
17365;SDS011;8800;50.118;9.900;2022-11-15T01:59:27;23.40;;;12.00;;
17365;SDS011;8800;50.118;9.900;2022-11-15T02:01:54;22.88;;;12.07;;
17365;SDS011;8800;50.118;9.900;2022-11-15T02:04:22;22.40;;;11.23;;
17365;SDS011;8800;50.118;9.900;2022-11-15T02:06:50;21.50;;;11.13;;
17365;SDS011;8800;50.118;9.900;2022-11-15T02:09:16;21.60;;;10.63;;
17365;SDS011;8800;50.118;9.900;2022-11-15T02:11:43;20.92;;;10.75;;
17365;SDS011;8800;50.118;9.900;2022-11-15T02:14:10;22.20;;;10.40;;
17365;SDS011;8800;50.118;9.900;2022-11-15T02:16:40;20.33;;;10.35;;
17365;SDS011;8800;50.118;9.900;2022-11-15T02:19:13;21.67;;;9.63;;
17365;SDS011;8800;50.118;9.900;2022-11-15T02:21:48;19.05;;;9.40;;
17365;SDS011;8800;50.118;9.900;2022-11-15T02:24:23;17.15;;;8.82;;
17365;SDS011;8800;50.118;9.900;2022-11-15T02:29:49;19.80;;;8.52;;
17365;SDS011;8800;50.118;9.900;2022-11-15T02:32:25;14.35;;;7.60;;
17365;SDS011;8800;50.118;9.900;2022-11-15T02:34:54;14.63;;;7.85;;
17365;SDS011;8800;50.118;9.900;2022-11-15T02:37:26;13.10;;;7.30;;
17365;SDS011;8800;50.118;9.900;2022-11-15T02:39:58;16.88;;;7.07;;
17365;SDS011;8800;50.118;9.900;2022-11-15T02:42:26;12.15;;;6.97;;
17365;SDS011;8800;50.118;9.900;2022-11-15T02:45:13;14.82;;;7.07;;
17365;SDS011;8800;50.118;9.900;2022-11-15T02:47:44;13.82;;;6.68;;
17365;SDS011;8800;50.118;9.900;2022-11-15T02:50:12;16.88;;;6.65;;
17365;SDS011;8800;50.118;9.900;2022-11-15T02:52:39;13.25;;;6.53;;
17365;SDS011;8800;50.118;9.900;2022-11-15T02:57:51;12.77;;;6.80;;
17365;SDS011;8800;50.118;9.900;2022-11-15T03:00:18;11.68;;;6.43;;
17365;SDS011;8800;50.118;9.900;2022-11-15T03:02:55;14.00;;;6.20;;
17365;SDS011;8800;50.118;9.900;2022-11-15T03:05:25;13.18;;;6.40;;
17365;SDS011;8800;50.118;9.900;2022-11-15T03:07:54;11.60;;;6.05;;
17365;SDS011;8800;50.118;9.900;2022-11-15T03:10:22;12.82;;;6.35;;
17365;SDS011;8800;50.118;9.900;2022-11-15T03:12:51;11.63;;;6.03;;
17365;SDS011;8800;50.118;9.900;2022-11-15T03:15:20;12.20;;;6.70;;
17365;SDS011;8800;50.118;9.900;2022-11-15T03:17:48;13.90;;;6.68;;
17365;SDS011;8800;50.118;9.900;2022-11-15T03:20:19;17.13;;;7.53;;
17365;SDS011;8800;50.118;9.900;2022-11-15T03:22:46;14.88;;;6.95;;
17365;SDS011;8800;50.118;9.900;2022-11-15T03:25:15;16.30;;;8.45;;
17365;SDS011;8800;50.118;9.900;2022-11-15T03:27:44;13.93;;;7.30;;
17365;SDS011;8800;50.118;9.900;2022-11-15T03:30:12;15.45;;;7.80;;
17365;SDS011;8800;50.118;9.900;2022-11-15T03:32:40;20.30;;;9.30;;
17365;SDS011;8800;50.118;9.900;2022-11-15T03:35:08;17.88;;;8.70;;
17365;SDS011;8800;50.118;9.900;2022-11-15T03:37:38;16.00;;;8.13;;
17365;SDS011;8800;50.118;9.900;2022-11-15T03:40:06;17.17;;;8.63;;
17365;SDS011;8800;50.118;9.900;2022-11-15T03:42:34;17.70;;;8.10;;
17365;SDS011;8800;50.118;9.900;2022-11-15T03:45:03;18.95;;;8.70;;
17365;SDS011;8800;50.118;9.900;2022-11-15T03:47:34;16.08;;;7.90;;
17365;SDS011;8800;50.118;9.900;2022-11-15T03:50:03;14.52;;;8.18;;
17365;SDS011;8800;50.118;9.900;2022-11-15T03:52:31;19.08;;;8.85;;
17365;SDS011;8800;50.118;9.900;2022-11-15T03:54:59;18.65;;;8.77;;
17365;SDS011;8800;50.118;9.900;2022-11-15T03:57:26;17.90;;;9.48;;
17365;SDS011;8800;50.118;9.900;2022-11-15T03:59:53;16.48;;;8.80;;
17365;SDS011;8800;50.118;9.900;2022-11-15T04:02:19;15.02;;;8.07;;
17365;SDS011;8800;50.118;9.900;2022-11-15T04:04:46;18.52;;;9.55;;
17365;SDS011;8800;50.118;9.900;2022-11-15T04:07:12;16.83;;;9.02;;
17365;SDS011;8800;50.118;9.900;2022-11-15T04:09:38;17.40;;;8.95;;
17365;SDS011;8800;50.118;9.900;2022-11-15T04:12:20;15.48;;;8.73;;
17365;SDS011;8800;50.118;9.900;2022-11-15T04:14:56;16.63;;;8.40;;
17365;SDS011;8800;50.118;9.900;2022-11-15T04:17:33;17.13;;;9.10;;
17365;SDS011;8800;50.118;9.900;2022-11-15T04:19:59;16.30;;;8.98;;
17365;SDS011;8800;50.118;9.900;2022-11-15T04:22:43;16.17;;;9.20;;
17365;SDS011;8800;50.118;9.900;2022-11-15T04:25:27;17.58;;;9.55;;
17365;SDS011;8800;50.118;9.900;2022-11-15T04:27:55;17.02;;;8.63;;
17365;SDS011;8800;50.118;9.900;2022-11-15T04:30:22;16.98;;;8.77;;
17365;SDS011;8800;50.118;9.900;2022-11-15T04:32:48;16.27;;;8.75;;
17365;SDS011;8800;50.118;9.900;2022-11-15T04:35:15;16.08;;;8.65;;
17365;SDS011;8800;50.118;9.900;2022-11-15T04:37:41;14.75;;;7.35;;
17365;SDS011;8800;50.118;9.900;2022-11-15T04:40:08;13.35;;;7.15;;
17365;SDS011;8800;50.118;9.900;2022-11-15T04:42:34;14.98;;;7.43;;
17365;SDS011;8800;50.118;9.900;2022-11-15T04:45:03;17.13;;;8.18;;
17365;SDS011;8800;50.118;9.900;2022-11-15T04:47:29;16.38;;;7.68;;
17365;SDS011;8800;50.118;9.900;2022-11-15T04:49:56;13.93;;;7.50;;
17365;SDS011;8800;50.118;9.900;2022-11-15T04:52:23;14.13;;;7.10;;
17365;SDS011;8800;50.118;9.900;2022-11-15T04:54:49;16.90;;;7.75;;
17365;SDS011;8800;50.118;9.900;2022-11-15T04:57:16;13.18;;;6.95;;
17365;SDS011;8800;50.118;9.900;2022-11-15T04:59:43;14.77;;;7.95;;
17365;SDS011;8800;50.118;9.900;2022-11-15T05:02:11;12.85;;;7.28;;
17365;SDS011;8800;50.118;9.900;2022-11-15T05:04:38;15.57;;;7.65;;
17365;SDS011;8800;50.118;9.900;2022-11-15T05:07:04;14.75;;;8.45;;
17365;SDS011;8800;50.118;9.900;2022-11-15T05:09:31;15.60;;;8.27;;
17365;SDS011;8800;50.118;9.900;2022-11-15T05:11:57;19.00;;;9.20;;
17365;SDS011;8800;50.118;9.900;2022-11-15T05:14:24;18.77;;;9.65;;
17365;SDS011;8800;50.118;9.900;2022-11-15T05:16:51;17.95;;;9.48;;
17365;SDS011;8800;50.118;9.900;2022-11-15T05:19:19;16.15;;;8.35;;
17365;SDS011;8800;50.118;9.900;2022-11-15T05:21:45;12.80;;;7.18;;
17365;SDS011;8800;50.118;9.900;2022-11-15T05:24:13;15.35;;;7.30;;
17365;SDS011;8800;50.118;9.900;2022-11-15T05:26:39;13.00;;;7.20;;
17365;SDS011;8800;50.118;9.900;2022-11-15T05:29:08;13.32;;;7.03;;
17365;SDS011;8800;50.118;9.900;2022-11-15T05:31:36;11.50;;;6.35;;
17365;SDS011;8800;50.118;9.900;2022-11-15T05:34:05;13.60;;;6.50;;
17365;SDS011;8800;50.118;9.900;2022-11-15T05:36:35;11.13;;;6.78;;
17365;SDS011;8800;50.118;9.900;2022-11-15T05:39:03;13.43;;;6.63;;
17365;SDS011;8800;50.118;9.900;2022-11-15T05:41:31;13.15;;;6.43;;
17365;SDS011;8800;50.118;9.900;2022-11-15T05:43:58;11.40;;;6.00;;
17365;SDS011;8800;50.118;9.900;2022-11-15T05:46:26;14.50;;;6.35;;
17365;SDS011;8800;50.118;9.900;2022-11-15T05:48:53;12.50;;;5.78;;
17365;SDS011;8800;50.118;9.900;2022-11-15T05:51:20;11.07;;;6.13;;
17365;SDS011;8800;50.118;9.900;2022-11-15T05:53:48;11.00;;;5.75;;
17365;SDS011;8800;50.118;9.900;2022-11-15T05:56:15;14.75;;;7.40;;
17365;SDS011;8800;50.118;9.900;2022-11-15T05:58:42;16.02;;;6.90;;
17365;SDS011;8800;50.118;9.900;2022-11-15T06:01:08;10.70;;;6.15;;
17365;SDS011;8800;50.118;9.900;2022-11-15T06:03:35;14.35;;;6.45;;
17365;SDS011;8800;50.118;9.900;2022-11-15T06:06:02;11.73;;;6.18;;
17365;SDS011;8800;50.118;9.900;2022-11-15T06:08:28;18.95;;;8.32;;
17365;SDS011;8800;50.118;9.900;2022-11-15T06:10:56;16.23;;;7.78;;
17365;SDS011;8800;50.118;9.900;2022-11-15T06:13:22;15.88;;;7.57;;
17365;SDS011;8800;50.118;9.900;2022-11-15T06:15:49;13.57;;;6.65;;
17365;SDS011;8800;50.118;9.900;2022-11-15T06:18:15;14.10;;;6.93;;
17365;SDS011;8800;50.118;9.900;2022-11-15T06:20:41;13.90;;;7.15;;
17365;SDS011;8800;50.118;9.900;2022-11-15T06:23:08;11.50;;;6.43;;
17365;SDS011;8800;50.118;9.900;2022-11-15T06:25:34;14.43;;;6.82;;
17365;SDS011;8800;50.118;9.900;2022-11-15T06:28:02;12.20;;;6.75;;
17365;SDS011;8800;50.118;9.900;2022-11-15T06:30:28;14.18;;;6.50;;
17365;SDS011;8800;50.118;9.900;2022-11-15T06:32:58;16.30;;;8.50;;
17365;SDS011;8800;50.118;9.900;2022-11-15T06:35:25;19.65;;;9.40;;
17365;SDS011;8800;50.118;9.900;2022-11-15T06:37:52;13.93;;;7.93;;
17365;SDS011;8800;50.118;9.900;2022-11-15T06:40:18;17.15;;;9.45;;
17365;SDS011;8800;50.118;9.900;2022-11-15T06:42:45;13.85;;;8.23;;
17365;SDS011;8800;50.118;9.900;2022-11-15T06:45:12;17.20;;;8.65;;
17365;SDS011;8800;50.118;9.900;2022-11-15T06:47:43;16.83;;;9.20;;
17365;SDS011;8800;50.118;9.900;2022-11-15T06:50:10;15.52;;;8.65;;
17365;SDS011;8800;50.118;9.900;2022-11-15T06:52:36;15.82;;;7.70;;
17365;SDS011;8800;50.118;9.900;2022-11-15T06:55:03;10.90;;;6.65;;
17365;SDS011;8800;50.118;9.900;2022-11-15T06:57:29;12.27;;;6.50;;
17365;SDS011;8800;50.118;9.900;2022-11-15T06:59:57;13.82;;;7.20;;
17365;SDS011;8800;50.118;9.900;2022-11-15T07:02:25;13.68;;;7.38;;
17365;SDS011;8800;50.118;9.900;2022-11-15T07:04:51;12.48;;;7.32;;
17365;SDS011;8800;50.118;9.900;2022-11-15T07:07:18;17.80;;;8.10;;
17365;SDS011;8800;50.118;9.900;2022-11-15T07:09:44;12.65;;;6.15;;
17365;SDS011;8800;50.118;9.900;2022-11-15T07:12:10;12.43;;;6.55;;
17365;SDS011;8800;50.118;9.900;2022-11-15T07:14:37;12.85;;;6.50;;
17365;SDS011;8800;50.118;9.900;2022-11-15T07:17:03;15.60;;;7.15;;
17365;SDS011;8800;50.118;9.900;2022-11-15T07:19:31;11.82;;;6.35;;
17365;SDS011;8800;50.118;9.900;2022-11-15T07:21:57;11.27;;;6.93;;
17365;SDS011;8800;50.118;9.900;2022-11-15T07:24:24;13.30;;;8.82;;
17365;SDS011;8800;50.118;9.900;2022-11-15T07:26:50;15.10;;;7.80;;
17365;SDS011;8800;50.118;9.900;2022-11-15T07:29:16;13.70;;;7.75;;
17365;SDS011;8800;50.118;9.900;2022-11-15T07:31:43;11.98;;;7.50;;
17365;SDS011;8800;50.118;9.900;2022-11-15T07:34:09;11.60;;;6.50;;
17365;SDS011;8800;50.118;9.900;2022-11-15T07:36:37;13.15;;;7.43;;
17365;SDS011;8800;50.118;9.900;2022-11-15T07:39:03;13.77;;;7.32;;
17365;SDS011;8800;50.118;9.900;2022-11-15T07:41:30;15.82;;;6.75;;
17365;SDS011;8800;50.118;9.900;2022-11-15T07:43:56;12.55;;;6.22;;
17365;SDS011;8800;50.118;9.900;2022-11-15T07:46:23;10.02;;;5.80;;
17365;SDS011;8800;50.118;9.900;2022-11-15T07:48:50;9.60;;;6.20;;
17365;SDS011;8800;50.118;9.900;2022-11-15T07:51:16;12.88;;;6.28;;
17365;SDS011;8800;50.118;9.900;2022-11-15T07:53:44;11.30;;;6.25;;
17365;SDS011;8800;50.118;9.900;2022-11-15T07:56:10;10.40;;;6.43;;
17365;SDS011;8800;50.118;9.900;2022-11-15T07:58:37;12.30;;;6.75;;
17365;SDS011;8800;50.118;9.900;2022-11-15T08:01:04;12.65;;;6.63;;
17365;SDS011;8800;50.118;9.900;2022-11-15T08:03:30;13.07;;;6.50;;
17365;SDS011;8800;50.118;9.900;2022-11-15T08:05:57;16.15;;;6.97;;
17365;SDS011;8800;50.118;9.900;2022-11-15T08:08:24;12.65;;;6.63;;
17365;SDS011;8800;50.118;9.900;2022-11-15T08:10:52;11.15;;;6.47;;
17365;SDS011;8800;50.118;9.900;2022-11-15T08:13:18;12.32;;;6.13;;
17365;SDS011;8800;50.118;9.900;2022-11-15T08:15:46;11.40;;;6.85;;
17365;SDS011;8800;50.118;9.900;2022-11-15T08:18:13;11.65;;;6.15;;
17365;SDS011;8800;50.118;9.900;2022-11-15T08:20:39;10.60;;;6.25;;
17365;SDS011;8800;50.118;9.900;2022-11-15T08:23:06;12.45;;;5.97;;
17365;SDS011;8800;50.118;9.900;2022-11-15T08:25:34;11.57;;;6.25;;
17365;SDS011;8800;50.118;9.900;2022-11-15T08:28:03;13.25;;;6.97;;
17365;SDS011;8800;50.118;9.900;2022-11-15T08:30:30;13.05;;;6.60;;
17365;SDS011;8800;50.118;9.900;2022-11-15T08:32:57;12.75;;;6.70;;
17365;SDS011;8800;50.118;9.900;2022-11-15T08:35:24;12.70;;;6.50;;
17365;SDS011;8800;50.118;9.900;2022-11-15T08:37:52;11.80;;;6.40;;
17365;SDS011;8800;50.118;9.900;2022-11-15T08:40:18;11.52;;;6.40;;
17365;SDS011;8800;50.118;9.900;2022-11-15T08:42:45;12.48;;;6.25;;
17365;SDS011;8800;50.118;9.900;2022-11-15T08:45:14;15.27;;;7.10;;
17365;SDS011;8800;50.118;9.900;2022-11-15T08:47:41;12.40;;;6.82;;
17365;SDS011;8800;50.118;9.900;2022-11-15T08:50:08;11.45;;;6.55;;
17365;SDS011;8800;50.118;9.900;2022-11-15T08:52:34;15.02;;;7.05;;
17365;SDS011;8800;50.118;9.900;2022-11-15T08:55:01;9.98;;;6.10;;
17365;SDS011;8800;50.118;9.900;2022-11-15T08:57:28;15.07;;;6.55;;
17365;SDS011;8800;50.118;9.900;2022-11-15T08:59:55;13.10;;;6.88;;
17365;SDS011;8800;50.118;9.900;2022-11-15T09:02:23;11.80;;;6.32;;
17365;SDS011;8800;50.118;9.900;2022-11-15T09:04:50;11.05;;;5.90;;
17365;SDS011;8800;50.118;9.900;2022-11-15T09:07:16;12.88;;;5.78;;
17365;SDS011;8800;50.118;9.900;2022-11-15T09:09:43;11.15;;;6.22;;
17365;SDS011;8800;50.118;9.900;2022-11-15T09:12:09;14.07;;;6.30;;
17365;SDS011;8800;50.118;9.900;2022-11-15T09:14:36;9.70;;;5.95;;
17365;SDS011;8800;50.118;9.900;2022-11-15T09:17:02;14.23;;;6.15;;
17365;SDS011;8800;50.118;9.900;2022-11-15T09:19:30;10.27;;;5.93;;
17365;SDS011;8800;50.118;9.900;2022-11-15T09:21:57;11.93;;;5.90;;
17365;SDS011;8800;50.118;9.900;2022-11-15T09:24:23;9.68;;;5.70;;
17365;SDS011;8800;50.118;9.900;2022-11-15T09:26:49;9.60;;;5.38;;
17365;SDS011;8800;50.118;9.900;2022-11-15T09:29:16;11.55;;;5.82;;
17365;SDS011;8800;50.118;9.900;2022-11-15T09:31:43;10.40;;;5.68;;
17365;SDS011;8800;50.118;9.900;2022-11-15T09:34:09;10.07;;;5.30;;
17365;SDS011;8800;50.118;9.900;2022-11-15T09:36:37;8.73;;;5.10;;
17365;SDS011;8800;50.118;9.900;2022-11-15T09:39:04;9.70;;;5.30;;
17365;SDS011;8800;50.118;9.900;2022-11-15T09:41:37;8.38;;;5.03;;
17365;SDS011;8800;50.118;9.900;2022-11-15T09:44:15;9.90;;;5.78;;
17365;SDS011;8800;50.118;9.900;2022-11-15T09:46:47;9.50;;;4.88;;
17365;SDS011;8800;50.118;9.900;2022-11-15T09:49:17;9.35;;;4.60;;
17365;SDS011;8800;50.118;9.900;2022-11-15T09:51:47;9.18;;;4.60;;
17365;SDS011;8800;50.118;9.900;2022-11-15T09:54:16;7.97;;;4.57;;
17365;SDS011;8800;50.118;9.900;2022-11-15T09:56:44;9.32;;;4.55;;
17365;SDS011;8800;50.118;9.900;2022-11-15T09:59:14;8.70;;;4.35;;
17365;SDS011;8800;50.118;9.900;2022-11-15T10:01:44;9.55;;;4.93;;
17365;SDS011;8800;50.118;9.900;2022-11-15T10:04:13;8.38;;;4.85;;
17365;SDS011;8800;50.118;9.900;2022-11-15T10:06:42;7.68;;;5.07;;
17365;SDS011;8800;50.118;9.900;2022-11-15T10:09:13;7.97;;;4.70;;
17365;SDS011;8800;50.118;9.900;2022-11-15T10:11:41;7.63;;;4.72;;
17365;SDS011;8800;50.118;9.900;2022-11-15T10:14:09;7.93;;;4.85;;
17365;SDS011;8800;50.118;9.900;2022-11-15T10:16:42;9.30;;;4.60;;
17365;SDS011;8800;50.118;9.900;2022-11-15T10:19:14;7.35;;;4.60;;
17365;SDS011;8800;50.118;9.900;2022-11-15T10:21:45;8.05;;;4.45;;
17365;SDS011;8800;50.118;9.900;2022-11-15T10:24:15;6.72;;;3.60;;
17365;SDS011;8800;50.118;9.900;2022-11-15T10:26:45;6.38;;;3.72;;
17365;SDS011;8800;50.118;9.900;2022-11-15T10:29:17;6.82;;;4.13;;
17365;SDS011;8800;50.118;9.900;2022-11-15T10:31:43;7.32;;;4.00;;
17365;SDS011;8800;50.118;9.900;2022-11-15T10:34:10;7.68;;;4.35;;
17365;SDS011;8800;50.118;9.900;2022-11-15T10:36:38;7.68;;;4.40;;
17365;SDS011;8800;50.118;9.900;2022-11-15T10:39:11;7.35;;;4.20;;
17365;SDS011;8800;50.118;9.900;2022-11-15T10:41:39;7.28;;;4.25;;
17365;SDS011;8800;50.118;9.900;2022-11-15T10:44:19;7.45;;;4.72;;
17365;SDS011;8800;50.118;9.900;2022-11-15T10:46:46;8.48;;;4.50;;
17365;SDS011;8800;50.118;9.900;2022-11-15T10:49:15;6.88;;;4.03;;
17365;SDS011;8800;50.118;9.900;2022-11-15T10:51:44;7.80;;;4.10;;
17365;SDS011;8800;50.118;9.900;2022-11-15T10:54:11;6.75;;;4.30;;
17365;SDS011;8800;50.118;9.900;2022-11-15T10:56:40;6.90;;;4.07;;
17365;SDS011;8800;50.118;9.900;2022-11-15T10:59:12;6.95;;;3.72;;
17365;SDS011;8800;50.118;9.900;2022-11-15T11:01:45;8.23;;;4.35;;
17365;SDS011;8800;50.118;9.900;2022-11-15T11:04:12;7.47;;;3.85;;
17365;SDS011;8800;50.118;9.900;2022-11-15T11:06:45;8.20;;;4.03;;
17365;SDS011;8800;50.118;9.900;2022-11-15T11:09:22;8.32;;;4.22;;
17365;SDS011;8800;50.118;9.900;2022-11-15T11:11:50;6.05;;;4.00;;
17365;SDS011;8800;50.118;9.900;2022-11-15T11:14:21;9.13;;;5.25;;
17365;SDS011;8800;50.118;9.900;2022-11-15T11:16:49;8.13;;;4.57;;
17365;SDS011;8800;50.118;9.900;2022-11-15T11:22:03;10.30;;;4.65;;
17365;SDS011;8800;50.118;9.900;2022-11-15T11:24:32;8.45;;;4.80;;
17365;SDS011;8800;50.118;9.900;2022-11-15T11:27:07;9.40;;;4.70;;
17365;SDS011;8800;50.118;9.900;2022-11-15T11:29:38;7.93;;;4.72;;
17365;SDS011;8800;50.118;9.900;2022-11-15T11:32:13;11.32;;;4.88;;
17365;SDS011;8800;50.118;9.900;2022-11-15T11:34:45;27.95;;;9.13;;
17365;SDS011;8800;50.118;9.900;2022-11-15T11:37:17;20.70;;;8.18;;
17365;SDS011;8800;50.118;9.900;2022-11-15T11:39:49;15.20;;;5.15;;
17365;SDS011;8800;50.118;9.900;2022-11-15T11:42:22;13.90;;;6.18;;
17365;SDS011;8800;50.118;9.900;2022-11-15T11:44:54;10.35;;;5.57;;
17365;SDS011;8800;50.118;9.900;2022-11-15T11:47:24;7.90;;;4.55;;
17365;SDS011;8800;50.118;9.900;2022-11-15T11:49:56;9.02;;;3.88;;
17365;SDS011;8800;50.118;9.900;2022-11-15T11:52:26;10.50;;;4.50;;
17365;SDS011;8800;50.118;9.900;2022-11-15T11:54:57;16.33;;;6.57;;
17365;SDS011;8800;50.118;9.900;2022-11-15T11:57:28;12.68;;;5.68;;
17365;SDS011;8800;50.118;9.900;2022-11-15T11:59:56;9.77;;;4.88;;
17365;SDS011;8800;50.118;9.900;2022-11-15T12:02:25;8.57;;;4.65;;
17365;SDS011;8800;50.118;9.900;2022-11-15T12:04:57;10.77;;;5.80;;
17365;SDS011;8800;50.118;9.900;2022-11-15T12:07:24;6.05;;;4.10;;
17365;SDS011;8800;50.118;9.900;2022-11-15T12:09:53;11.05;;;3.78;;
17365;SDS011;8800;50.118;9.900;2022-11-15T12:12:25;6.88;;;3.65;;
17365;SDS011;8800;50.118;9.900;2022-11-15T12:14:54;6.22;;;3.75;;
17365;SDS011;8800;50.118;9.900;2022-11-15T12:17:22;7.47;;;4.18;;
17365;SDS011;8800;50.118;9.900;2022-11-15T12:19:49;8.05;;;3.75;;
17365;SDS011;8800;50.118;9.900;2022-11-15T12:22:17;8.85;;;3.67;;
17365;SDS011;8800;50.118;9.900;2022-11-15T12:24:46;6.30;;;4.20;;
17365;SDS011;8800;50.118;9.900;2022-11-15T12:27:18;5.20;;;3.65;;
17365;SDS011;8800;50.118;9.900;2022-11-15T12:29:46;8.00;;;3.97;;
17365;SDS011;8800;50.118;9.900;2022-11-15T12:32:17;5.47;;;3.95;;
17365;SDS011;8800;50.118;9.900;2022-11-15T12:34:44;27.25;;;4.93;;
17365;SDS011;8800;50.118;9.900;2022-11-15T12:40:04;14.55;;;4.80;;
17365;SDS011;8800;50.118;9.900;2022-11-15T12:42:35;6.60;;;3.92;;
17365;SDS011;8800;50.118;9.900;2022-11-15T12:45:02;7.72;;;4.03;;
17365;SDS011;8800;50.118;9.900;2022-11-15T12:47:29;7.03;;;3.78;;
17365;SDS011;8800;50.118;9.900;2022-11-15T12:49:56;21.10;;;4.40;;
17365;SDS011;8800;50.118;9.900;2022-11-15T12:52:22;7.38;;;3.65;;
17365;SDS011;8800;50.118;9.900;2022-11-15T12:54:51;8.20;;;4.10;;
17365;SDS011;8800;50.118;9.900;2022-11-15T12:57:27;10.25;;;4.43;;
17365;SDS011;8800;50.118;9.900;2022-11-15T12:59:55;6.43;;;3.50;;
17365;SDS011;8800;50.118;9.900;2022-11-15T13:02:23;6.95;;;4.15;;
17365;SDS011;8800;50.118;9.900;2022-11-15T13:04:52;6.93;;;4.18;;
17365;SDS011;8800;50.118;9.900;2022-11-15T13:10:01;5.85;;;4.05;;
17365;SDS011;8800;50.118;9.900;2022-11-15T13:17:55;9.13;;;4.65;;
17365;SDS011;8800;50.118;9.900;2022-11-15T13:20:25;8.05;;;5.00;;
17365;SDS011;8800;50.118;9.900;2022-11-15T13:22:53;8.38;;;4.38;;
17365;SDS011;8800;50.118;9.900;2022-11-15T13:25:37;10.45;;;4.65;;
17365;SDS011;8800;50.118;9.900;2022-11-15T13:28:10;6.88;;;3.90;;
17365;SDS011;8800;50.118;9.900;2022-11-15T13:30:37;10.10;;;4.78;;
17365;SDS011;8800;50.118;9.900;2022-11-15T13:33:07;8.60;;;4.30;;
17365;SDS011;8800;50.118;9.900;2022-11-15T13:35:36;9.70;;;4.13;;
17365;SDS011;8800;50.118;9.900;2022-11-15T13:38:04;7.80;;;3.70;;
17365;SDS011;8800;50.118;9.900;2022-11-15T13:40:34;11.30;;;4.35;;
17365;SDS011;8800;50.118;9.900;2022-11-15T13:43:12;7.40;;;3.67;;
17365;SDS011;8800;50.118;9.900;2022-11-15T13:45:40;7.03;;;3.80;;
17365;SDS011;8800;50.118;9.900;2022-11-15T13:48:07;5.50;;;3.58;;
17365;SDS011;8800;50.118;9.900;2022-11-15T13:50:36;5.57;;;3.55;;
17365;SDS011;8800;50.118;9.900;2022-11-15T13:53:04;8.57;;;3.78;;
17365;SDS011;8800;50.118;9.900;2022-11-15T13:55:31;8.70;;;3.78;;
17365;SDS011;8800;50.118;9.900;2022-11-15T13:57:59;6.82;;;3.70;;
17365;SDS011;8800;50.118;9.900;2022-11-15T14:00:31;6.50;;;3.33;;
17365;SDS011;8800;50.118;9.900;2022-11-15T14:03:03;9.05;;;3.35;;
17365;SDS011;8800;50.118;9.900;2022-11-15T14:05:30;6.90;;;3.40;;
17365;SDS011;8800;50.118;9.900;2022-11-15T14:07:59;6.28;;;3.60;;
17365;SDS011;8800;50.118;9.900;2022-11-15T14:10:27;6.88;;;3.80;;
17365;SDS011;8800;50.118;9.900;2022-11-15T14:12:54;9.25;;;4.35;;
17365;SDS011;8800;50.118;9.900;2022-11-15T14:15:25;10.80;;;4.50;;
17365;SDS011;8800;50.118;9.900;2022-11-15T14:17:52;9.88;;;4.78;;
17365;SDS011;8800;50.118;9.900;2022-11-15T14:20:19;10.15;;;5.30;;
17365;SDS011;8800;50.118;9.900;2022-11-15T14:22:51;9.75;;;5.10;;
17365;SDS011;8800;50.118;9.900;2022-11-15T14:25:19;10.65;;;5.40;;
17365;SDS011;8800;50.118;9.900;2022-11-15T14:30:28;9.93;;;5.00;;
17365;SDS011;8800;50.118;9.900;2022-11-15T14:32:54;9.65;;;5.20;;
17365;SDS011;8800;50.118;9.900;2022-11-15T14:35:21;13.48;;;5.72;;
17365;SDS011;8800;50.118;9.900;2022-11-15T14:37:47;11.73;;;5.57;;
17365;SDS011;8800;50.118;9.900;2022-11-15T14:40:14;10.95;;;5.38;;
17365;SDS011;8800;50.118;9.900;2022-11-15T14:42:43;10.82;;;5.53;;
17365;SDS011;8800;50.118;9.900;2022-11-15T14:45:10;6.88;;;4.20;;
17365;SDS011;8800;50.118;9.900;2022-11-15T14:47:38;7.97;;;4.25;;
17365;SDS011;8800;50.118;9.900;2022-11-15T14:50:04;11.38;;;4.28;;
17365;SDS011;8800;50.118;9.900;2022-11-15T14:52:32;8.10;;;3.83;;
17365;SDS011;8800;50.118;9.900;2022-11-15T14:55:00;7.30;;;3.85;;
17365;SDS011;8800;50.118;9.900;2022-11-15T14:57:27;6.03;;;3.40;;
17365;SDS011;8800;50.118;9.900;2022-11-15T14:59:55;10.35;;;4.63;;
17365;SDS011;8800;50.118;9.900;2022-11-15T15:02:23;7.47;;;3.95;;
17365;SDS011;8800;50.118;9.900;2022-11-15T15:04:50;8.75;;;4.53;;
17365;SDS011;8800;50.118;9.900;2022-11-15T15:07:16;8.65;;;4.60;;
17365;SDS011;8800;50.118;9.900;2022-11-15T15:09:43;7.88;;;4.18;;
17365;SDS011;8800;50.118;9.900;2022-11-15T15:12:12;7.95;;;4.57;;
17365;SDS011;8800;50.118;9.900;2022-11-15T15:14:40;8.75;;;4.90;;
17365;SDS011;8800;50.118;9.900;2022-11-15T15:17:08;9.05;;;4.95;;
17365;SDS011;8800;50.118;9.900;2022-11-15T15:19:35;7.15;;;4.40;;